< < Back
Terminal Aerodrome Forecast


Current Version              Previous Versions:   1  2  3  4  5  6  7  8  9  

Terminal Aerodrome Forecast

998
FTUS44 KOHX 041720
TAFBNA
TAF
KBNA 041720Z 0418/0518 VRB05KT P6SM FEW060 SCT070=

Latest METAR

976
SAUS70 KWBC 050500 RRA
MTRBNA
METAR KBNA 050453Z 00000KT 9SM CLR 24/19 A3006 RMK AO2 SLP170
T02390194


USA.gov is the U.S. government's official web portal to all federal, state and local government web resources and services.